Time;durP1;ratioP1;P1;durP2;ratioP2;P2;SDS_P1;SDS_P2;PMS_P1;PMS_P2;Temp;Humidity;BMP_temperature;BMP_pressure;BME280_temperature;BME280_humidity;BME280_pressure;Samples;Min_cycle;Max_cycle;Signal;HPM_P1;HPM_P2
2022/10/10 00:02:18;;;;;;;8.65;4.88;;;;;;;;;;8268958;28;20037;-62
2022/10/10 00:06:19;;;;;;;5.25;2.88;;;;;;;;;;8267117;28;20018;-61
2022/10/10 00:10:19;;;;;;;4.82;2.30;;;;;;;;;;8265342;28;20026;-62
2022/10/10 00:14:19;;;;;;;3.83;2.42;;;;;;;;;;8267935;28;20571;-62
2022/10/10 00:18:20;;;;;;;4.55;2.70;;;;;;;;;;8272268;28;20121;-62
2022/10/10 00:22:20;;;;;;;4.83;2.43;;;;;;;;;;8267699;28;20655;-61
2022/10/10 00:26:20;;;;;;;5.35;2.45;;;;;;;;;;8269805;28;20116;-61
2022/10/10 00:30:20;;;;;;;5.55;2.30;;;;;;;;;;8268066;28;20585;-61
2022/10/10 00:34:20;;;;;;;4.28;2.40;;;;;;;;;;8267804;28;20022;-61
2022/10/10 00:38:21;;;;;;;2.50;2.30;;;;;;;;;;8269487;28;20025;-61
2022/10/10 00:42:21;;;;;;;5.00;2.78;;;;;;;;;;8266894;28;20033;-62
2022/10/10 00:46:21;;;;;;;5.07;2.60;;;;;;;;;;8268221;28;20042;-61
2022/10/10 00:50:22;;;;;;;7.07;3.00;;;;;;;;;;8268027;28;20057;-61
2022/10/10 00:54:23;;;;;;;3.38;2.67;;;;;;;;;;8265553;28;20026;-62
2022/10/10 00:58:23;;;;;;;2.97;2.63;;;;;;;;;;8267048;28;20053;-61
2022/10/10 01:02:24;;;;;;;3.27;2.17;;;;;;;;;;8267152;28;20051;-61
2022/10/10 01:06:24;;;;;;;4.57;2.40;;;;;;;;;;8266885;28;20897;-62
2022/10/10 01:10:24;;;;;;;2.65;2.10;;;;;;;;;;8266240;28;20065;-61
2022/10/10 01:14:37;;;;;;;3.55;2.20;;;;;;;;;;8265897;28;20107;-61
2022/10/10 01:18:37;;;;;;;3.17;1.98;;;;;;;;;;8263263;28;20584;-62
2022/10/10 01:22:37;;;;;;;5.18;2.40;;;;;;;;;;8265496;28;20237;-61
2022/10/10 01:26:40;;;;;;;4.07;2.40;;;;;;;;;;8266002;28;20864;-61
2022/10/10 01:30:41;;;;;;;5.70;2.38;;;;;;;;;;8270448;28;20037;-61
2022/10/10 01:34:55;;;;;;;2.97;2.17;;;;;;;;;;8276992;28;20032;-61
2022/10/10 01:38:58;;;;;;;5.43;2.30;;;;;;;;;;8274093;28;20032;-61
2022/10/10 01:43:00;;;;;;;3.08;2.35;;;;;;;;;;8276559;28;20454;-61
2022/10/10 01:47:00;;;;;;;5.80;2.38;;;;;;;;;;8274852;28;20511;-61
2022/10/10 01:51:19;;;;;;;3.28;2.13;;;;;;;;;;8275115;28;20604;-61
2022/10/10 01:55:28;;;;;;;4.18;2.05;;;;;;;;;;8275383;28;20451;-61
2022/10/10 01:59:41;;;;;;;6.38;3.15;;;;;;;;;;8275580;28;20057;-61
2022/10/10 02:03:44;;;;;;;4.18;3.00;;;;;;;;;;8276735;28;20304;-62
2022/10/10 02:08:01;;;;;;;4.28;2.90;;;;;;;;;;8279723;28;20478;-61
2022/10/10 02:12:03;;;;;;;4.45;2.42;;;;;;;;;;8274684;28;20033;-61
2022/10/10 02:16:05;;;;;;;4.43;3.55;;;;;;;;;;8274729;28;20033;-61
2022/10/10 02:20:09;;;;;;;7.95;4.78;;;;;;;;;;8268101;28;20040;-62
2022/10/10 02:24:11;;;;;;;5.85;3.20;;;;;;;;;;8269393;28;20033;-61
2022/10/10 02:28:19;;;;;;;5.30;3.22;;;;;;;;;;8271819;28;20042;-61
2022/10/10 02:32:23;;;;;;;4.22;3.05;;;;;;;;;;8270435;28;20120;-61
2022/10/10 02:36:24;;;;;;;3.20;2.53;;;;;;;;;;8269113;28;20080;-62
2022/10/10 02:40:26;;;;;;;3.38;2.45;;;;;;;;;;8270922;28;20021;-61
2022/10/10 02:44:26;;;;;;;4.20;2.63;;;;;;;;;;8265785;28;20425;-61
2022/10/10 02:48:26;;;;;;;3.55;2.65;;;;;;;;;;8265696;28;20026;-61
2022/10/10 02:52:27;;;;;;;2.95;2.38;;;;;;;;;;8265784;28;20794;-61
2022/10/10 02:56:27;;;;;;;4.55;2.80;;;;;;;;;;8264598;28;20028;-61
2022/10/10 03:00:27;;;;;;;4.22;3.10;;;;;;;;;;8264942;28;20148;-61
2022/10/10 03:04:27;;;;;;;3.75;2.83;;;;;;;;;;8266502;28;20145;-61
2022/10/10 03:08:27;;;;;;;3.33;2.42;;;;;;;;;;8267146;28;20469;-61
2022/10/10 03:12:28;;;;;;;5.50;2.80;;;;;;;;;;8265225;28;20021;-61
2022/10/10 03:16:28;;;;;;;3.33;2.58;;;;;;;;;;8264558;28;20088;-61
2022/10/10 03:20:28;;;;;;;2.92;2.38;;;;;;;;;;8265153;28;20033;-61
2022/10/10 03:24:28;;;;;;;4.53;3.15;;;;;;;;;;8266030;28;20033;-61
2022/10/10 03:28:29;;;;;;;3.45;2.75;;;;;;;;;;8265310;28;20121;-61
2022/10/10 03:32:29;;;;;;;2.72;2.50;;;;;;;;;;8261858;28;20053;-61
2022/10/10 03:36:30;;;;;;;4.00;2.63;;;;;;;;;;8262798;28;20022;-62
2022/10/10 03:40:30;;;;;;;4.30;2.90;;;;;;;;;;8262571;28;20041;-61
2022/10/10 03:44:30;;;;;;;4.82;2.40;;;;;;;;;;8262018;28;20380;-61
2022/10/10 03:48:30;;;;;;;4.15;2.70;;;;;;;;;;8260406;28;20240;-61
2022/10/10 03:52:31;;;;;;;5.18;2.70;;;;;;;;;;8260652;28;20040;-61
2022/10/10 03:56:31;;;;;;;6.10;2.97;;;;;;;;;;8262360;28;20030;-61
2022/10/10 04:00:31;;;;;;;3.13;2.60;;;;;;;;;;8262501;28;20497;-61
2022/10/10 04:04:31;;;;;;;5.25;2.75;;;;;;;;;;8260868;28;20022;-61
2022/10/10 04:08:31;;;;;;;4.45;2.90;;;;;;;;;;8261084;28;20031;-62
2022/10/10 04:12:32;;;;;;;5.07;3.38;;;;;;;;;;8262115;28;20172;-61
2022/10/10 04:16:32;;;;;;;4.57;3.35;;;;;;;;;;8261717;28;20029;-60
2022/10/10 04:20:32;;;;;;;4.25;3.10;;;;;;;;;;8261827;28;20025;-61
2022/10/10 04:24:32;;;;;;;4.82;3.33;;;;;;;;;;8261506;28;20087;-61
2022/10/10 04:28:32;;;;;;;3.50;2.40;;;;;;;;;;8262749;28;20100;-61
2022/10/10 04:32:33;;;;;;;4.97;3.17;;;;;;;;;;8263398;28;20125;-61
2022/10/10 04:36:33;;;;;;;4.90;2.92;;;;;;;;;;8257053;28;20466;-61
2022/10/10 04:40:34;;;;;;;3.97;3.10;;;;;;;;;;8260507;28;20021;-61
2022/10/10 04:44:34;;;;;;;4.20;3.20;;;;;;;;;;8259574;28;20353;-61
2022/10/10 04:48:35;;;;;;;5.47;2.78;;;;;;;;;;8260120;28;20408;-61
2022/10/10 04:52:35;;;;;;;8.00;3.20;;;;;;;;;;8260714;28;20030;-61
2022/10/10 04:56:36;;;;;;;6.45;3.05;;;;;;;;;;8261854;28;20014;-61
2022/10/10 05:00:39;;;;;;;11.07;5.03;;;;;;;;;;8260952;28;20034;-61
2022/10/10 05:04:39;;;;;;;10.60;6.93;;;;;;;;;;8262368;28;20458;-62
2022/10/10 05:08:39;;;;;;;16.85;7.22;;;;;;;;;;8259875;28;20149;-61
2022/10/10 05:12:39;;;;;;;13.00;6.60;;;;;;;;;;8262202;28;20025;-61
2022/10/10 05:16:39;;;;;;;6.75;5.13;;;;;;;;;;8260167;28;20171;-61
2022/10/10 05:20:42;;;;;;;7.95;4.65;;;;;;;;;;8261303;28;20129;-62
2022/10/10 05:24:42;;;;;;;5.28;4.03;;;;;;;;;;8259521;28;20033;-62
2022/10/10 05:28:43;;;;;;;6.22;3.60;;;;;;;;;;8260936;28;20102;-62
2022/10/10 05:32:43;;;;;;;6.45;4.63;;;;;;;;;;8255008;28;20758;-62
2022/10/10 05:36:43;;;;;;;6.55;4.18;;;;;;;;;;8261433;28;20059;-61
2022/10/10 05:40:43;;;;;;;3.95;3.35;;;;;;;;;;8257410;28;20596;-61
2022/10/10 05:44:44;;;;;;;12.98;4.88;;;;;;;;;;8262764;28;20116;-61
2022/10/10 05:48:44;;;;;;;6.20;3.80;;;;;;;;;;8260284;28;20038;-61
2022/10/10 05:52:44;;;;;;;11.98;4.00;;;;;;;;;;8260023;28;20276;-61
2022/10/10 05:56:45;;;;;;;4.47;3.42;;;;;;;;;;8259617;28;20071;-61
2022/10/10 06:00:46;;;;;;;5.10;3.53;;;;;;;;;;8258429;28;20034;-62
2022/10/10 06:04:46;;;;;;;3.83;3.20;;;;;;;;;;8259097;28;20326;-61
2022/10/10 06:08:46;;;;;;;6.43;3.65;;;;;;;;;;8261159;28;20148;-60
2022/10/10 06:12:47;;;;;;;6.50;3.72;;;;;;;;;;8257705;28;20026;-61
2022/10/10 06:16:47;;;;;;;4.40;3.28;;;;;;;;;;8256003;28;20531;-61
2022/10/10 06:20:47;;;;;;;6.05;3.35;;;;;;;;;;8260869;28;20483;-61
2022/10/10 06:24:47;;;;;;;5.95;4.80;;;;;;;;;;8264071;28;20446;-62
2022/10/10 06:28:49;;;;;;;8.90;5.57;;;;;;;;;;8270097;28;20026;-62
2022/10/10 06:32:49;;;;;;;7.38;5.30;;;;;;;;;;8267336;28;20176;-61
2022/10/10 06:36:50;;;;;;;7.32;4.95;;;;;;;;;;8261751;28;20334;-61
2022/10/10 06:40:51;;;;;;;6.25;4.40;;;;;;;;;;8263945;28;20057;-62
2022/10/10 06:44:51;;;;;;;4.75;3.40;;;;;;;;;;8262367;28;20385;-62
2022/10/10 06:48:51;;;;;;;5.38;3.22;;;;;;;;;;8261843;28;20068;-62
2022/10/10 06:52:51;;;;;;;5.45;3.05;;;;;;;;;;8263821;28;20117;-61
2022/10/10 06:56:51;;;;;;;7.07;3.53;;;;;;;;;;8261823;28;20068;-62
2022/10/10 07:00:54;;;;;;;11.23;4.13;;;;;;;;;;8262903;28;20555;-61
2022/10/10 07:04:54;;;;;;;13.50;4.78;;;;;;;;;;8261944;28;20617;-62
2022/10/10 07:08:54;;;;;;;14.80;5.00;;;;;;;;;;8262853;28;20018;-62
2022/10/10 07:12:54;;;;;;;16.52;4.65;;;;;;;;;;8262927;28;20735;-62
2022/10/10 07:16:54;;;;;;;13.15;5.13;;;;;;;;;;8260582;28;20250;-62
2022/10/10 07:20:55;;;;;;;16.35;5.00;;;;;;;;;;8262269;28;20029;-62
2022/10/10 07:24:55;;;;;;;11.52;4.00;;;;;;;;;;8260816;28;20041;-62
2022/10/10 07:28:56;;;;;;;11.77;4.50;;;;;;;;;;8260183;28;20030;-62
2022/10/10 07:32:56;;;;;;;11.85;5.30;;;;;;;;;;8260759;28;20253;-62
2022/10/10 07:36:57;;;;;;;16.70;5.70;;;;;;;;;;8261841;28;20103;-62
2022/10/10 07:40:57;;;;;;;14.75;4.53;;;;;;;;;;8259200;28;20025;-62
2022/10/10 07:44:57;;;;;;;13.98;4.40;;;;;;;;;;8262009;28;20588;-63
2022/10/10 07:48:57;;;;;;;12.52;3.97;;;;;;;;;;8259420;28;20049;-62
2022/10/10 07:52:57;;;;;;;14.50;5.45;;;;;;;;;;8260742;28;20032;-62
2022/10/10 07:56:58;;;;;;;11.00;5.68;;;;;;;;;;8261483;28;20038;-62
2022/10/10 08:01:02;;;;;;;9.10;5.32;;;;;;;;;;8259623;28;20034;-62
2022/10/10 08:05:02;;;;;;;13.52;6.40;;;;;;;;;;8261016;28;20018;-62
2022/10/10 08:09:03;;;;;;;9.87;6.13;;;;;;;;;;8261151;28;20052;-62
2022/10/10 08:13:03;;;;;;;10.48;5.15;;;;;;;;;;8260719;28;20280;-62
2022/10/10 08:17:03;;;;;;;6.53;3.92;;;;;;;;;;8261204;28;20037;-63
2022/10/10 08:21:05;;;;;;;14.05;5.10;;;;;;;;;;8260412;28;20018;-62
2022/10/10 08:25:05;;;;;;;12.00;4.68;;;;;;;;;;8259918;28;20837;-62
2022/10/10 08:29:05;;;;;;;10.00;4.70;;;;;;;;;;8261133;28;20040;-62
2022/10/10 08:33:06;;;;;;;10.02;4.40;;;;;;;;;;8259394;28;20065;-63
2022/10/10 08:37:06;;;;;;;6.65;3.63;;;;;;;;;;8259826;28;20029;-62
2022/10/10 08:41:08;;;;;;;6.95;3.97;;;;;;;;;;8257885;28;20056;-62
2022/10/10 08:45:16;;;;;;;5.93;3.70;;;;;;;;;;8257608;28;20022;-62
2022/10/10 08:49:31;;;;;;;8.38;3.90;;;;;;;;;;8256783;28;20247;-62
2022/10/10 08:53:37;;;;;;;5.90;4.43;;;;;;;;;;8257044;28;20500;-62
2022/10/10 08:57:47;;;;;;;10.13;4.50;;;;;;;;;;8258424;28;20402;-62
2022/10/10 09:01:48;;;;;;;6.22;4.57;;;;;;;;;;8257974;28;20507;-62
2022/10/10 09:05:54;;;;;;;7.65;4.28;;;;;;;;;;8257876;28;20025;-62
2022/10/10 09:10:13;;;;;;;13.60;4.88;;;;;;;;;;8257308;28;20595;-62
2022/10/10 09:14:19;;;;;;;8.98;3.97;;;;;;;;;;8260601;28;20026;-62
2022/10/10 09:18:29;;;;;;;6.40;4.00;;;;;;;;;;8255721;28;20042;-62
2022/10/10 09:22:38;;;;;;;7.72;3.90;;;;;;;;;;8258286;28;20141;-62
2022/10/10 09:26:46;;;;;;;7.68;4.40;;;;;;;;;;8256679;28;20857;-63
2022/10/10 09:30:52;;;;;;;5.60;3.60;;;;;;;;;;8257101;28;20418;-62
2022/10/10 09:35:10;;;;;;;6.53;3.90;;;;;;;;;;8259922;28;20544;-62
2022/10/10 09:39:22;;;;;;;5.32;3.70;;;;;;;;;;8257372;28;20841;-62
2022/10/10 09:43:28;;;;;;;8.10;3.92;;;;;;;;;;8258144;28;20029;-62
2022/10/10 09:47:28;;;;;;;7.22;3.78;;;;;;;;;;8257371;28;20037;-62
2022/10/10 09:51:29;;;;;;;5.28;3.78;;;;;;;;;;8258869;28;20026;-62
2022/10/10 09:55:32;;;;;;;5.40;4.07;;;;;;;;;;8265891;28;20030;-62
2022/10/10 09:59:37;;;;;;;7.20;4.10;;;;;;;;;;8267083;28;20030;-62
2022/10/10 10:03:38;;;;;;;7.75;3.88;;;;;;;;;;8268627;28;20136;-63
2022/10/10 10:07:45;;;;;;;11.30;3.35;;;;;;;;;;8277120;28;20065;-63
2022/10/10 10:11:46;;;;;;;11.13;3.00;;;;;;;;;;8268368;28;20032;-62
2022/10/10 10:15:48;;;;;;;7.22;3.35;;;;;;;;;;8266147;28;20554;-62
2022/10/10 10:19:49;;;;;;;8.25;4.10;;;;;;;;;;8268555;28;20034;-62
2022/10/10 10:23:54;;;;;;;8.10;3.85;;;;;;;;;;8266628;28;20039;-62
2022/10/10 10:28:10;;;;;;;7.57;3.85;;;;;;;;;;8269322;28;20025;-62
2022/10/10 10:32:23;;;;;;;7.00;3.38;;;;;;;;;;8266350;28;20072;-62
2022/10/10 10:36:45;;;;;;;7.85;3.00;;;;;;;;;;8266165;28;20431;-62
2022/10/10 10:40:45;;;;;;;7.70;3.22;;;;;;;;;;8266147;28;20069;-62
2022/10/10 10:45:02;;;;;;;9.07;2.42;;;;;;;;;;8270077;28;20030;-63
2022/10/10 10:49:09;;;;;;;5.97;2.55;;;;;;;;;;8269822;28;20152;-63
2022/10/10 10:53:09;;;;;;;14.20;2.83;;;;;;;;;;8273900;28;20746;-63
2022/10/10 10:57:12;;;;;;;6.25;2.00;;;;;;;;;;8274325;28;20041;-63
2022/10/10 11:01:21;;;;;;;8.02;2.70;;;;;;;;;;8272052;28;20522;-63
2022/10/10 11:05:30;;;;;;;12.88;2.92;;;;;;;;;;8268705;28;20033;-62
2022/10/10 11:09:37;;;;;;;9.50;2.40;;;;;;;;;;8265233;28;20022;-62
2022/10/10 11:13:38;;;;;;;8.25;2.65;;;;;;;;;;8261990;28;20116;-62
2022/10/10 11:17:40;;;;;;;6.68;2.53;;;;;;;;;;8250067;28;20157;-62
2022/10/10 11:26:23;;;;;;;9.93;2.78;;;;;;;;;;8307160;28;20052;-62
2022/10/10 11:30:24;;;;;;;7.40;2.40;;;;;;;;;;8274309;28;20127;-62
2022/10/10 11:34:30;;;;;;;7.22;2.08;;;;;;;;;;8261781;28;20040;-62
2022/10/10 11:38:49;;;;;;;6.53;2.47;;;;;;;;;;8257433;28;20409;-62
2022/10/10 11:42:52;;;;;;;7.53;2.55;;;;;;;;;;8260249;28;20029;-62
2022/10/10 11:47:19;;;;;;;10.18;2.50;;;;;;;;;;8254670;28;20045;-61
2022/10/10 11:51:25;;;;;;;16.15;3.40;;;;;;;;;;8258736;28;20425;-62
2022/10/10 11:55:36;;;;;;;12.13;2.70;;;;;;;;;;8261551;28;20022;-61
2022/10/10 11:59:52;;;;;;;14.30;2.70;;;;;;;;;;8261056;28;20681;-61
2022/10/10 12:03:52;;;;;;;15.95;2.78;;;;;;;;;;8259720;28;20140;-61
2022/10/10 12:07:55;;;;;;;17.08;3.03;;;;;;;;;;8261133;28;20053;-62
2022/10/10 12:11:58;;;;;;;13.18;3.20;;;;;;;;;;8262051;28;20525;-63
2022/10/10 12:16:05;;;;;;;15.20;2.87;;;;;;;;;;8265975;28;20099;-62
2022/10/10 12:20:14;;;;;;;15.45;2.75;;;;;;;;;;8271792;28;20021;-63
2022/10/10 12:24:14;;;;;;;15.57;3.05;;;;;;;;;;8269650;28;20041;-62
2022/10/10 12:28:15;;;;;;;20.17;3.20;;;;;;;;;;8269255;28;20037;-62
2022/10/10 12:32:18;;;;;;;12.80;3.00;;;;;;;;;;8271552;28;20049;-62
2022/10/10 12:36:18;;;;;;;13.38;3.00;;;;;;;;;;8269268;28;20026;-62
2022/10/10 12:40:20;;;;;;;12.23;2.33;;;;;;;;;;8259558;28;20036;-62
2022/10/10 12:44:20;;;;;;;12.77;2.90;;;;;;;;;;8260213;28;20032;-62
2022/10/10 12:48:21;;;;;;;13.65;2.63;;;;;;;;;;8257381;28;20095;-62
2022/10/10 12:52:21;;;;;;;11.40;2.50;;;;;;;;;;8269231;28;20029;-62
2022/10/10 12:56:32;;;;;;;16.52;2.83;;;;;;;;;;8261223;28;20028;-62
2022/10/10 13:00:39;;;;;;;10.70;2.47;;;;;;;;;;8259187;28;20045;-62
2022/10/10 13:04:41;;;;;;;7.95;2.30;;;;;;;;;;8259426;28;20093;-63
2022/10/10 13:08:41;;;;;;;14.82;2.72;;;;;;;;;;8258510;28;20551;-62
2022/10/10 13:12:41;;;;;;;10.48;2.65;;;;;;;;;;8258932;28;20674;-61
2022/10/10 13:16:43;;;;;;;9.77;2.33;;;;;;;;;;8260573;28;20499;-62
2022/10/10 13:20:43;;;;;;;9.07;2.05;;;;;;;;;;8262455;28;20566;-62
2022/10/10 13:24:43;;;;;;;15.05;3.00;;;;;;;;;;8258365;28;20056;-62
2022/10/10 13:28:44;;;;;;;12.63;3.15;;;;;;;;;;8258561;28;20133;-62
2022/10/10 13:32:44;;;;;;;10.45;2.42;;;;;;;;;;8254711;28;20042;-61
2022/10/10 13:36:44;;;;;;;17.13;3.27;;;;;;;;;;8260208;28;20205;-62
2022/10/10 13:40:46;;;;;;;9.95;2.63;;;;;;;;;;8264239;28;20483;-62
2022/10/10 13:44:51;;;;;;;15.82;3.03;;;;;;;;;;8273301;28;20578;-62
2022/10/10 13:48:51;;;;;;;11.93;2.40;;;;;;;;;;8264673;28;20030;-63
2022/10/10 13:53:13;;;;;;;10.63;2.47;;;;;;;;;;8266203;28;20029;-63
2022/10/10 13:57:24;;;;;;;10.80;2.35;;;;;;;;;;8263860;28;20037;-63
2022/10/10 14:01:27;;;;;;;11.23;2.80;;;;;;;;;;8264119;28;20479;-63
2022/10/10 14:05:29;;;;;;;12.35;2.42;;;;;;;;;;8268259;28;20022;-63
2022/10/10 14:09:34;;;;;;;7.15;2.33;;;;;;;;;;8269852;28;20029;-62
2022/10/10 14:13:36;;;;;;;11.50;2.15;;;;;;;;;;8268802;28;20600;-63
2022/10/10 14:17:37;;;;;;;7.68;2.15;;;;;;;;;;8268071;28;20064;-63
2022/10/10 14:21:37;;;;;;;6.65;2.08;;;;;;;;;;8266272;28;20030;-64
2022/10/10 14:25:45;;;;;;;11.70;2.28;;;;;;;;;;8266995;28;20658;-64
2022/10/10 14:29:45;;;;;;;7.78;2.35;;;;;;;;;;8265723;28;20483;-64
2022/10/10 14:33:46;;;;;;;8.60;2.43;;;;;;;;;;8267619;28;20045;-64
2022/10/10 14:37:46;;;;;;;7.07;2.33;;;;;;;;;;8269482;28;20014;-64
2022/10/10 14:41:46;;;;;;;12.50;2.17;;;;;;;;;;8271954;28;20033;-64
2022/10/10 14:45:47;;;;;;;11.50;2.40;;;;;;;;;;8263166;28;20373;-63
2022/10/10 14:49:48;;;;;;;10.25;2.60;;;;;;;;;;8263143;28;20373;-64
2022/10/10 14:53:48;;;;;;;8.40;2.10;;;;;;;;;;8263472;28;20301;-64
2022/10/10 14:57:48;;;;;;;9.05;2.50;;;;;;;;;;8264271;28;20256;-64
2022/10/10 15:01:48;;;;;;;10.53;2.10;;;;;;;;;;8264530;28;20037;-64
2022/10/10 15:05:49;;;;;;;12.05;2.70;;;;;;;;;;8264097;28;20033;-64
2022/10/10 15:09:49;;;;;;;9.68;2.30;;;;;;;;;;8272722;28;20540;-64
2022/10/10 15:13:50;;;;;;;10.40;2.40;;;;;;;;;;8265951;28;20068;-64
2022/10/10 15:17:50;;;;;;;8.98;2.25;;;;;;;;;;8262251;28;20046;-64
2022/10/10 15:21:50;;;;;;;10.18;2.92;;;;;;;;;;8262512;28;20133;-64
2022/10/10 15:25:57;;;;;;;14.40;2.40;;;;;;;;;;8264464;28;20565;-64
2022/10/10 15:29:58;;;;;;;7.15;2.15;;;;;;;;;;8264318;28;20133;-64
2022/10/10 15:33:58;;;;;;;7.63;2.25;;;;;;;;;;8262901;28;20095;-64
2022/10/10 15:37:58;;;;;;;10.30;2.22;;;;;;;;;;8263512;28;20552;-64
2022/10/10 15:41:58;;;;;;;9.95;2.53;;;;;;;;;;8264063;28;20329;-64
2022/10/10 15:45:59;;;;;;;13.68;2.60;;;;;;;;;;8262264;28;20065;-64
2022/10/10 15:49:59;;;;;;;9.23;2.27;;;;;;;;;;8263418;28;20377;-64
2022/10/10 15:53:59;;;;;;;12.13;2.38;;;;;;;;;;8262508;28;21160;-64
2022/10/10 15:58:02;;;;;;;8.13;2.38;;;;;;;;;;8265750;28;20450;-64
2022/10/10 16:02:03;;;;;;;6.80;2.00;;;;;;;;;;8265008;28;20494;-64
2022/10/10 16:06:03;;;;;;;14.40;2.40;;;;;;;;;;8263514;28;20211;-64
2022/10/10 16:10:04;;;;;;;8.82;2.35;;;;;;;;;;8262455;28;20660;-64
2022/10/10 16:14:04;;;;;;;9.07;2.50;;;;;;;;;;8266946;28;20596;-64
2022/10/10 16:18:04;;;;;;;8.00;2.40;;;;;;;;;;8272108;28;20644;-63
2022/10/10 16:22:04;;;;;;;12.93;2.65;;;;;;;;;;8268397;28;20076;-65
2022/10/10 16:26:06;;;;;;;8.95;2.10;;;;;;;;;;8268283;28;20087;-64
2022/10/10 16:30:07;;;;;;;5.47;1.88;;;;;;;;;;8271368;28;20053;-64
2022/10/10 16:34:07;;;;;;;12.80;2.50;;;;;;;;;;8268426;28;20402;-63
2022/10/10 16:38:07;;;;;;;16.27;5.60;;;;;;;;;;8265795;28;20025;-65
2022/10/10 16:42:07;;;;;;;13.40;4.83;;;;;;;;;;8268009;28;20037;-64
2022/10/10 16:46:08;;;;;;;13.13;3.73;;;;;;;;;;8267552;28;20034;-65
2022/10/10 16:50:09;;;;;;;14.43;3.65;;;;;;;;;;8267853;28;20057;-65
2022/10/10 16:54:09;;;;;;;11.23;3.13;;;;;;;;;;8266994;28;20032;-65
2022/10/10 16:58:09;;;;;;;9.20;3.00;;;;;;;;;;8269368;28;20271;-64
2022/10/10 17:02:10;;;;;;;12.40;2.80;;;;;;;;;;8266228;28;20639;-64
2022/10/10 17:06:20;;;;;;;7.38;2.33;;;;;;;;;;8266714;28;20029;-64
2022/10/10 17:10:20;;;;;;;11.02;2.90;;;;;;;;;;8268367;28;20130;-63
2022/10/10 17:14:20;;;;;;;8.73;2.70;;;;;;;;;;8264754;28;20509;-64
2022/10/10 17:18:21;;;;;;;11.98;3.10;;;;;;;;;;8259765;28;20037;-63
2022/10/10 17:22:21;;;;;;;8.30;2.43;;;;;;;;;;8255554;28;20566;-63
2022/10/10 17:26:21;;;;;;;9.75;3.97;;;;;;;;;;8260209;28;20524;-63
2022/10/10 17:30:21;;;;;;;6.57;3.10;;;;;;;;;;8258544;28;20065;-64
2022/10/10 17:34:22;;;;;;;9.93;3.90;;;;;;;;;;8258701;28;20279;-63
2022/10/10 17:38:25;;;;;;;10.85;3.38;;;;;;;;;;8259223;28;20056;-63
2022/10/10 17:42:26;;;;;;;;;;;;;;;;;;8261924;28;20021;-64
2022/10/10 17:46:28;;;;;;;13.10;3.33;;;;;;;;;;8259803;28;19917;-64
2022/10/10 17:50:28;;;;;;;9.60;2.72;;;;;;;;;;8260457;28;20196;-64
2022/10/10 17:54:29;;;;;;;9.27;2.73;;;;;;;;;;8259984;28;20284;-64
2022/10/10 17:58:29;;;;;;;11.38;3.10;;;;;;;;;;8259382;28;20582;-63
2022/10/10 18:02:30;;;;;;;10.60;2.90;;;;;;;;;;8258568;28;20048;-63
2022/10/10 18:06:31;;;;;;;12.85;3.40;;;;;;;;;;8258888;28;20446;-64
2022/10/10 18:10:32;;;;;;;17.15;4.05;;;;;;;;;;8258131;28;20025;-64
2022/10/10 18:14:32;;;;;;;16.35;4.75;;;;;;;;;;8262427;28;20017;-66
2022/10/10 18:18:34;;;;;;;8.07;3.42;;;;;;;;;;8263759;28;20561;-63
2022/10/10 18:22:34;;;;;;;8.13;3.45;;;;;;;;;;8266305;28;20698;-64
2022/10/10 18:26:35;;;;;;;11.35;3.33;;;;;;;;;;8270880;28;20098;-64
2022/10/10 18:30:38;;;;;;;10.77;3.70;;;;;;;;;;8264242;28;20347;-64
2022/10/10 18:34:38;;;;;;;8.20;3.40;;;;;;;;;;8263675;28;20211;-63
2022/10/10 18:38:39;;;;;;;9.95;3.85;;;;;;;;;;8263405;28;20025;-64
2022/10/10 18:42:39;;;;;;;17.90;4.70;;;;;;;;;;8265544;28;20465;-64
2022/10/10 18:46:40;;;;;;;8.77;3.72;;;;;;;;;;8263484;28;20038;-64
2022/10/10 18:50:40;;;;;;;10.05;3.85;;;;;;;;;;8264446;28;20407;-64
2022/10/10 18:54:41;;;;;;;10.40;3.55;;;;;;;;;;8262567;28;20032;-64
2022/10/10 18:58:41;;;;;;;10.73;3.40;;;;;;;;;;8264849;28;20018;-64
2022/10/10 19:02:41;;;;;;;13.25;4.10;;;;;;;;;;8263957;28;20030;-64
2022/10/10 19:06:42;;;;;;;9.43;2.95;;;;;;;;;;8264442;28;20030;-64
2022/10/10 19:10:43;;;;;;;8.45;4.05;;;;;;;;;;8261981;28;20503;-63
2022/10/10 19:14:43;;;;;;;8.10;3.50;;;;;;;;;;8257459;28;20436;-64
2022/10/10 19:18:44;;;;;;;10.82;3.58;;;;;;;;;;8262690;28;20263;-64
2022/10/10 19:22:44;;;;;;;8.27;3.08;;;;;;;;;;8260879;28;20140;-64
2022/10/10 19:26:44;;;;;;;11.43;3.35;;;;;;;;;;8261465;28;20782;-63
2022/10/10 19:30:45;;;;;;;9.82;3.75;;;;;;;;;;8262009;28;20471;-64
2022/10/10 19:34:45;;;;;;;6.53;3.05;;;;;;;;;;8262789;28;20532;-64
2022/10/10 19:38:45;;;;;;;8.38;3.00;;;;;;;;;;8260009;28;20030;-64
2022/10/10 19:42:46;;;;;;;8.07;3.17;;;;;;;;;;8260602;28;20026;-64
2022/10/10 19:46:46;;;;;;;8.40;3.60;;;;;;;;;;8260207;28;20097;-64
2022/10/10 19:50:46;;;;;;;6.68;3.25;;;;;;;;;;8261622;28;20036;-64
2022/10/10 19:54:46;;;;;;;7.72;3.00;;;;;;;;;;8262713;28;20029;-64
2022/10/10 19:58:47;;;;;;;7.32;2.58;;;;;;;;;;8262767;28;20429;-63
2022/10/10 20:02:47;;;;;;;7.80;2.72;;;;;;;;;;8262428;28;20487;-64
2022/10/10 20:06:47;;;;;;;5.05;2.80;;;;;;;;;;8261371;28;20116;-63
2022/10/10 20:10:50;;;;;;;9.83;3.17;;;;;;;;;;8262760;28;20029;-63
2022/10/10 20:14:50;;;;;;;8.68;2.78;;;;;;;;;;8261703;28;20777;-64
2022/10/10 20:18:51;;;;;;;6.88;2.55;;;;;;;;;;8261192;28;20091;-63
2022/10/10 20:22:51;;;;;;;7.00;2.70;;;;;;;;;;8261591;28;20091;-64
2022/10/10 20:26:53;;;;;;;3.97;2.47;;;;;;;;;;8261958;28;20030;-63
2022/10/10 20:30:53;;;;;;;12.38;2.78;;;;;;;;;;8260026;28;20045;-64
2022/10/10 20:34:53;;;;;;;8.05;2.63;;;;;;;;;;8260409;28;20026;-63
2022/10/10 20:38:56;;;;;;;5.10;2.92;;;;;;;;;;8257841;28;20121;-64
2022/10/10 20:42:56;;;;;;;3.63;2.53;;;;;;;;;;8261294;28;20017;-64
2022/10/10 20:46:57;;;;;;;8.43;2.70;;;;;;;;;;8259987;28;20134;-64
2022/10/10 20:51:01;;;;;;;7.25;2.80;;;;;;;;;;8259502;28;20044;-64
2022/10/10 20:55:01;;;;;;;7.95;2.75;;;;;;;;;;8260309;28;20493;-64
2022/10/10 20:59:01;;;;;;;6.63;2.60;;;;;;;;;;8260682;28;20148;-64
2022/10/10 21:03:01;;;;;;;11.30;2.90;;;;;;;;;;8257772;28;20120;-64
2022/10/10 21:07:02;;;;;;;10.32;2.97;;;;;;;;;;8260128;28;20025;-64
2022/10/10 21:11:04;;;;;;;17.00;3.85;;;;;;;;;;8259377;28;20048;-63
2022/10/10 21:15:04;;;;;;;10.45;3.63;;;;;;;;;;8258614;28;20014;-64
2022/10/10 21:19:05;;;;;;;8.70;3.33;;;;;;;;;;8258416;28;20108;-64
2022/10/10 21:23:05;;;;;;;8.32;3.50;;;;;;;;;;8259922;28;20113;-64
2022/10/10 21:27:05;;;;;;;5.30;3.10;;;;;;;;;;8255845;28;20025;-64
2022/10/10 21:31:06;;;;;;;9.15;3.17;;;;;;;;;;8259420;28;21021;-63
2022/10/10 21:35:06;;;;;;;8.57;3.05;;;;;;;;;;8258856;28;20026;-64
2022/10/10 21:39:07;;;;;;;4.97;2.75;;;;;;;;;;8259561;28;20573;-63
2022/10/10 21:43:07;;;;;;;9.98;2.90;;;;;;;;;;8258213;28;20121;-64
2022/10/10 21:47:07;;;;;;;5.70;2.78;;;;;;;;;;8260606;28;20434;-64
2022/10/10 21:51:08;;;;;;;7.22;2.80;;;;;;;;;;8264557;28;20411;-64
2022/10/10 21:55:08;;;;;;;5.40;3.00;;;;;;;;;;8263552;28;20060;-64
2022/10/10 21:59:09;;;;;;;10.55;3.20;;;;;;;;;;8265824;28;20030;-64
2022/10/10 22:03:09;;;;;;;8.20;2.95;;;;;;;;;;8267316;28;20037;-63
2022/10/10 22:07:09;;;;;;;7.28;3.38;;;;;;;;;;8265688;28;20021;-63
2022/10/10 22:11:17;;;;;;;9.55;2.88;;;;;;;;;;8265713;28;20068;-63
2022/10/10 22:15:17;;;;;;;4.95;3.10;;;;;;;;;;8269014;28;20029;-63
2022/10/10 22:19:18;;;;;;;10.13;3.40;;;;;;;;;;8278078;28;20022;-63
2022/10/10 22:23:18;;;;;;;8.52;3.67;;;;;;;;;;8277947;28;20273;-63
2022/10/10 22:27:18;;;;;;;15.80;4.40;;;;;;;;;;8278888;28;20117;-63
2022/10/10 22:31:18;;;;;;;11.60;4.00;;;;;;;;;;8276604;28;20065;-64
2022/10/10 22:35:18;;;;;;;9.23;3.90;;;;;;;;;;8275699;28;20033;-63
2022/10/10 22:39:19;;;;;;;12.88;4.50;;;;;;;;;;8274455;28;20037;-63
2022/10/10 22:43:19;;;;;;;15.40;4.82;;;;;;;;;;8277984;28;20029;-64
2022/10/10 22:47:19;;;;;;;10.23;4.43;;;;;;;;;;8275809;28;20586;-64
2022/10/10 22:51:20;;;;;;;14.57;4.53;;;;;;;;;;8278405;28;20909;-64
2022/10/10 22:55:20;;;;;;;13.20;5.18;;;;;;;;;;8274318;28;20030;-64
2022/10/10 22:59:20;;;;;;;12.63;5.65;;;;;;;;;;8277877;28;20026;-63
2022/10/10 23:03:20;;;;;;;13.85;6.63;;;;;;;;;;8277106;28;20412;-64
2022/10/10 23:07:20;;;;;;;11.40;6.15;;;;;;;;;;8278179;28;20671;-64
2022/10/10 23:11:20;;;;;;;17.77;8.32;;;;;;;;;;8276231;28;20038;-64
2022/10/10 23:15:21;;;;;;;13.32;7.05;;;;;;;;;;8273975;28;20018;-64
2022/10/10 23:19:21;;;;;;;12.73;6.70;;;;;;;;;;8277246;28;20036;-64
2022/10/10 23:23:21;;;;;;;14.18;6.80;;;;;;;;;;8277211;28;20029;-64
2022/10/10 23:27:21;;;;;;;15.38;7.47;;;;;;;;;;8277151;28;20033;-64
2022/10/10 23:31:21;;;;;;;13.65;7.28;;;;;;;;;;8275124;28;20045;-64
2022/10/10 23:35:22;;;;;;;13.52;8.52;;;;;;;;;;8277602;28;20032;-63
2022/10/10 23:39:22;;;;;;;14.07;8.23;;;;;;;;;;8274820;28;20148;-64
2022/10/10 23:43:22;;;;;;;21.02;11.25;;;;;;;;;;8274788;28;20030;-64
2022/10/10 23:47:23;;;;;;;18.25;9.68;;;;;;;;;;8273944;28;20088;-64
2022/10/10 23:51:26;;;;;;;20.10;12.10;;;;;;;;;;8275173;28;20137;-64
2022/10/10 23:55:26;;;;;;;23.08;11.90;;;;;;;;;;8275327;28;20036;-64
2022/10/10 23:59:27;;;;;;;17.45;11.40;;;;;;;;;;8275905;28;20034;-64
